Time;durP1;ratioP1;P1;durP2;ratioP2;P2;SDS_P1;SDS_P2;PMS_P1;PMS_P2;Temp;Humidity;BMP_temperature;BMP_pressure;BME280_temperature;BME280_humidity;BME280_pressure;Samples;Min_cycle;Max_cycle;Signal;HPM_P1;HPM_P2
2022/03/25 00:00:48;;;;;;;21.33;15.90;;;1.90;78.70;;;;;;4950802;28;20939;-50
2022/03/25 00:03:15;;;;;;;23.70;16.47;;;1.90;78.00;;;;;;4950231;28;21010;-51
2022/03/25 00:05:41;;;;;;;33.90;24.13;;;1.90;77.00;;;;;;4950768;28;20554;-50
2022/03/25 00:08:08;;;;;;;31.10;20.10;;;1.90;76.70;;;;;;4949620;28;20569;-51
2022/03/25 00:10:35;;;;;;;23.90;17.20;;;1.80;78.00;;;;;;4948676;28;21019;-51
2022/03/25 00:13:03;;;;;;;21.70;15.80;;;1.90;72.10;;;;;;4951134;28;20485;-52
2022/03/25 00:15:30;;;;;;;17.00;13.73;;;1.90;69.10;;;;;;4950657;28;20471;-52
2022/03/25 00:17:56;;;;;;;17.07;14.77;;;1.80;67.00;;;;;;4951572;28;20467;-49
2022/03/25 00:20:23;;;;;;;24.83;14.50;;;1.70;67.80;;;;;;4949510;28;20565;-51
2022/03/25 00:22:49;;;;;;;24.70;13.70;;;1.70;67.90;;;;;;4949197;28;20556;-50
2022/03/25 00:25:16;;;;;;;22.07;14.30;;;1.70;66.60;;;;;;4948978;28;20545;-51
2022/03/25 00:27:43;;;;;;;28.40;15.43;;;1.70;65.70;;;;;;4949274;28;20834;-50
2022/03/25 00:30:12;;;;;;;22.27;14.87;;;1.60;61.50;;;;;;4950391;28;20566;-50
2022/03/25 00:32:40;;;;;;;18.97;14.80;;;1.50;59.80;;;;;;4952990;28;20490;-50
2022/03/25 00:35:07;;;;;;;17.30;14.00;;;1.50;59.90;;;;;;4948953;28;20558;-50
2022/03/25 00:37:34;;;;;;;22.60;16.73;;;1.50;61.40;;;;;;4952373;28;20566;-50
2022/03/25 00:40:01;;;;;;;25.00;15.10;;;1.50;53.50;;;;;;4948894;28;20591;-51
2022/03/25 00:42:29;;;;;;;24.10;15.83;;;1.40;51.30;;;;;;4951317;28;20466;-50
2022/03/25 00:44:56;;;;;;;23.10;16.07;;;1.40;46.10;;;;;;4949365;28;20463;-51
2022/03/25 00:47:24;;;;;;;20.03;15.87;;;1.40;46.60;;;;;;4948741;28;20466;-51
2022/03/25 00:49:51;;;;;;;19.43;15.60;;;1.40;45.60;;;;;;4951646;28;20572;-51
2022/03/25 00:52:18;;;;;;;20.03;15.10;;;1.30;42.10;;;;;;4948571;28;20553;-51
2022/03/25 00:54:45;;;;;;;20.30;15.27;;;1.30;38.30;;;;;;4953081;28;20462;-51
2022/03/25 00:57:11;;;;;;;21.73;15.40;;;1.30;39.60;;;;;;4952207;28;20479;-51
2022/03/25 00:59:38;;;;;;;20.43;16.40;;;1.30;41.20;;;;;;4952956;28;20462;-52
2022/03/25 01:02:04;;;;;;;23.27;16.03;;;1.30;42.60;;;;;;4947317;28;20546;-52
2022/03/25 01:04:32;;;;;;;18.80;14.40;;;1.30;42.00;;;;;;4948993;28;20549;-52
2022/03/25 01:06:59;;;;;;;21.63;16.00;;;1.30;45.60;;;;;;4952504;28;20804;-51
2022/03/25 01:09:26;;;;;;;20.67;15.27;;;1.30;46.50;;;;;;4944655;28;20494;-52
2022/03/25 01:11:53;;;;;;;23.93;16.63;;;1.30;41.50;;;;;;4952830;28;20548;-52
2022/03/25 01:14:19;;;;;;;20.80;15.30;;;1.30;42.10;;;;;;4947662;28;20466;-52
2022/03/25 01:16:46;;;;;;;22.17;15.83;;;1.20;44.00;;;;;;4950405;28;20561;-52
2022/03/25 01:19:13;;;;;;;27.77;17.07;;;1.30;42.10;;;;;;4948853;28;20544;-51
2022/03/25 01:21:41;;;;;;;19.17;13.80;;;1.30;42.10;;;;;;4948470;28;20488;-51
2022/03/25 01:24:08;;;;;;;25.27;15.47;;;1.30;45.90;;;;;;4946113;28;20555;-52
2022/03/25 01:26:34;;;;;;;20.30;15.60;;;1.20;46.20;;;;;;4950210;28;20545;-50
2022/03/25 01:29:01;;;;;;;20.90;15.47;;;1.20;42.10;;;;;;4946816;28;20585;-52
2022/03/25 01:31:27;;;;;;;20.90;15.83;;;1.20;39.80;;;;;;4968409;23;20584;-52
2022/03/25 01:33:54;;;;;;;20.63;16.60;;;1.20;33.80;;;;;;4971947;28;20973;-54
2022/03/25 01:36:20;;;;;;;22.77;16.23;;;1.20;37.30;;;;;;4963724;28;20475;-53
2022/03/25 01:38:49;;;;;;;22.47;17.23;;;1.00;34.60;;;;;;4972477;28;20530;-53
2022/03/25 01:41:17;;;;;;;24.20;16.90;;;1.00;29.80;;;;;;4967569;28;20524;-54
2022/03/25 01:43:44;;;;;;;21.93;16.03;;;1.00;30.30;;;;;;4968440;28;21523;-53
2022/03/25 01:46:10;;;;;;;22.00;16.97;;;1.00;33.40;;;;;;4972050;28;20516;-53
2022/03/25 01:48:37;;;;;;;23.20;17.30;;;1.10;33.30;;;;;;4969580;28;20580;-53
2022/03/25 01:51:04;;;;;;;20.10;17.00;;;1.10;27.90;;;;;;4970933;28;20569;-53
2022/03/25 01:53:31;;;;;;;19.43;15.10;;;1.10;28.20;;;;;;4967230;28;20462;-53
2022/03/25 01:56:01;;;;;;;21.37;16.10;;;1.10;26.40;;;;;;4969379;28;20540;-54
2022/03/25 01:58:29;;;;;;;22.20;16.57;;;1.20;29.00;;;;;;4971018;28;20472;-53
2022/03/25 02:00:56;;;;;;;21.00;15.70;;;1.20;30.90;;;;;;4968293;28;20521;-54
2022/03/25 02:03:22;;;;;;;22.23;15.27;;;1.20;29.90;;;;;;4965692;28;20501;-54
2022/03/25 02:05:50;;;;;;;31.80;17.00;;;1.10;32.40;;;;;;4977414;28;20571;-53
2022/03/25 02:08:17;;;;;;;26.43;16.30;;;1.00;30.40;;;;;;4972633;28;20850;-52
2022/03/25 02:10:44;;;;;;;21.37;16.97;;;1.00;29.00;;;;;;4971625;28;20520;-52
2022/03/25 02:13:12;;;;;;;24.57;16.87;;;1.00;27.70;;;;;;4971025;28;20885;-53
2022/03/25 02:15:41;;;;;;;22.70;17.30;;;0.90;27.60;;;;;;4970747;28;21034;-53
2022/03/25 02:18:10;;;;;;;26.37;17.53;;;1.00;25.10;;;;;;4971690;28;20475;-53
2022/03/25 02:20:38;;;;;;;21.20;17.23;;;1.00;24.50;;;;;;4970019;28;20465;-53
2022/03/25 02:23:07;;;;;;;23.73;17.03;;;0.90;24.60;;;;;;4967502;28;20469;-52
2022/03/25 02:25:33;;;;;;;21.40;16.70;;;0.80;21.40;;;;;;4969481;28;21022;-53
2022/03/25 02:28:03;;;;;;;21.57;17.63;;;0.80;22.50;;;;;;4972549;28;20888;-52
2022/03/25 02:30:30;;;;;;;26.20;19.27;;;0.90;99.90;;;;;;4968666;28;21302;-53
2022/03/25 02:33:01;;;;;;;27.50;17.60;;;0.90;99.90;;;;;;4968071;28;20505;-58
2022/03/25 02:35:42;;;;;;;25.87;19.30;;;0.80;99.90;;;;;;4968904;28;20462;-53
2022/03/25 02:38:11;;;;;;;25.67;18.70;;;0.80;99.90;;;;;;4972148;28;20472;-52
2022/03/25 02:40:38;;;;;;;25.37;18.67;;;0.80;99.90;;;;;;4966386;28;20548;-52
2022/03/25 02:43:05;;;;;;;25.63;17.20;;;0.80;99.90;;;;;;4968942;28;21018;-52
2022/03/25 02:45:32;;;;;;;23.77;18.40;;;0.80;99.90;;;;;;4966272;28;20469;-52
2022/03/25 02:48:00;;;;;;;23.97;18.57;;;0.80;99.90;;;;;;4967452;28;20461;-53
2022/03/25 02:50:27;;;;;;;22.63;17.03;;;0.80;99.90;;;;;;4973004;28;20923;-52
2022/03/25 02:52:54;;;;;;;24.67;18.40;;;0.70;99.90;;;;;;4974073;28;20478;-53
2022/03/25 02:55:22;;;;;;;23.67;18.70;;;0.70;99.90;;;;;;4969939;28;20466;-54
2022/03/25 02:57:48;;;;;;;28.80;18.90;;;0.60;99.90;;;;;;4969771;28;20485;-52
2022/03/25 03:00:15;;;;;;;24.50;18.80;;;0.70;99.90;;;;;;4965221;28;20473;-53
2022/03/25 03:02:43;;;;;;;25.50;19.00;;;0.70;99.90;;;;;;4971752;28;20473;-52
2022/03/25 03:05:10;;;;;;;23.53;18.23;;;0.70;99.90;;;;;;4972293;28;20877;-53
2022/03/25 03:07:37;;;;;;;22.30;18.37;;;0.60;99.90;;;;;;4962572;28;20528;-53
2022/03/25 03:10:04;;;;;;;32.20;19.10;;;0.70;99.90;;;;;;4967675;28;20486;-53
2022/03/25 03:12:33;;;;;;;26.13;17.70;;;0.70;99.90;;;;;;4972083;28;20955;-54
2022/03/25 03:14:59;;;;;;;28.00;19.03;;;0.70;99.90;;;;;;4970962;28;21010;-52
2022/03/25 03:17:26;;;;;;;24.53;18.80;;;0.60;99.90;;;;;;4966967;28;21005;-53
2022/03/25 03:19:54;;;;;;;25.77;19.90;;;0.60;99.90;;;;;;4971357;28;20544;-52
2022/03/25 03:22:20;;;;;;;25.60;18.93;;;0.60;99.90;;;;;;4967853;28;20583;-53
2022/03/25 03:24:47;;;;;;;24.00;19.33;;;0.60;99.90;;;;;;4969989;28;20556;-52
2022/03/25 03:27:14;;;;;;;21.63;18.17;;;0.60;99.90;;;;;;4971215;28;20556;-53
2022/03/25 03:29:42;;;;;;;21.90;18.00;;;0.50;99.90;;;;;;4969572;28;20480;-56
2022/03/25 03:32:09;;;;;;;23.60;18.13;;;0.50;99.90;;;;;;4970087;28;20911;-54
2022/03/25 03:34:36;;;;;;;25.47;18.53;;;0.60;99.90;;;;;;4974445;28;20903;-53
2022/03/25 03:37:03;;;;;;;26.73;17.83;;;0.50;99.90;;;;;;4972295;28;20469;-53
2022/03/25 03:39:30;;;;;;;25.83;19.33;;;0.50;99.90;;;;;;4967259;28;20890;-52
2022/03/25 03:41:56;;;;;;;25.27;19.47;;;0.60;99.90;;;;;;4971297;28;20599;-53
2022/03/25 03:44:23;;;;;;;24.90;19.73;;;0.60;99.90;;;;;;4972232;28;20489;-53
2022/03/25 03:46:51;;;;;;;25.40;19.67;;;0.60;99.90;;;;;;4970512;28;20469;-53
2022/03/25 03:49:18;;;;;;;24.40;19.37;;;0.60;99.90;;;;;;4972133;28;20572;-54
2022/03/25 03:51:44;;;;;;;23.10;18.50;;;0.60;99.90;;;;;;4975617;28;20485;-53
2022/03/25 03:54:11;;;;;;;31.43;20.07;;;0.60;99.90;;;;;;4973423;28;20921;-53
2022/03/25 03:56:38;;;;;;;30.47;19.60;;;0.50;99.90;;;;;;4976505;28;20807;-53
2022/03/25 03:59:04;;;;;;;29.13;20.40;;;0.60;99.90;;;;;;4970762;28;20552;-56
2022/03/25 04:01:31;;;;;;;23.03;18.23;;;0.60;99.90;;;;;;4974225;28;20580;-53
2022/03/25 04:03:59;;;;;;;23.60;19.17;;;0.60;99.90;;;;;;4974180;28;20548;-53
2022/03/25 04:06:26;;;;;;;23.97;18.77;;;0.50;99.90;;;;;;4976201;28;20556;-53
2022/03/25 04:08:52;;;;;;;32.07;19.63;;;0.50;99.90;;;;;;4973629;28;20898;-52
2022/03/25 04:11:19;;;;;;;26.53;18.27;;;0.40;99.90;;;;;;4974630;28;20577;-52
2022/03/25 04:13:46;;;;;;;23.43;17.80;;;0.40;99.90;;;;;;4971317;28;20487;-54
2022/03/25 04:16:13;;;;;;;27.50;19.70;;;0.50;99.90;;;;;;4969602;28;20556;-53
2022/03/25 04:18:39;;;;;;;28.50;19.07;;;0.50;99.90;;;;;;4973308;28;20552;-53
2022/03/25 04:21:07;;;;;;;28.47;20.10;;;0.40;99.90;;;;;;4974831;28;20484;-53
2022/03/25 04:23:34;;;;;;;27.37;19.40;;;0.40;99.90;;;;;;4964576;28;20498;-52
2022/03/25 04:26:02;;;;;;;28.43;20.93;;;0.50;99.90;;;;;;4970928;28;20544;-53
2022/03/25 04:28:28;;;;;;;24.83;19.47;;;0.40;99.90;;;;;;4973140;28;21300;-53
2022/03/25 04:30:55;;;;;;;27.60;20.33;;;0.40;99.90;;;;;;4967315;28;20925;-52
2022/03/25 04:33:22;;;;;;;24.50;19.17;;;0.20;99.90;;;;;;4971646;28;20469;-52
2022/03/25 04:35:48;;;;;;;26.57;19.50;;;0.20;99.90;;;;;;4963926;28;20549;-53
2022/03/25 04:38:16;;;;;;;28.17;20.67;;;0.30;99.90;;;;;;4971465;28;20493;-52
2022/03/25 04:40:43;;;;;;;34.83;20.93;;;0.30;99.90;;;;;;4973882;28;20579;-54
2022/03/25 04:43:10;;;;;;;28.50;19.60;;;0.30;99.90;;;;;;4964144;28;20470;-52
2022/03/25 04:45:37;;;;;;;28.03;21.30;;;0.30;99.90;;;;;;4970635;28;20975;-53
2022/03/25 04:48:05;;;;;;;32.37;20.53;;;0.30;99.90;;;;;;4969174;28;20553;-53
2022/03/25 04:50:31;;;;;;;28.80;20.70;;;0.30;99.90;;;;;;4970918;28;20485;-53
2022/03/25 04:52:58;;;;;;;34.53;18.83;;;0.30;99.90;;;;;;4970016;28;20588;-55
2022/03/25 04:55:26;;;;;;;28.20;20.90;;;0.30;99.90;;;;;;4972380;28;20476;-53
2022/03/25 04:57:53;;;;;;;26.87;20.67;;;0.30;99.90;;;;;;4969444;28;21135;-53
2022/03/25 05:00:19;;;;;;;36.17;20.90;;;0.20;99.90;;;;;;4968912;28;20565;-53
2022/03/25 05:02:47;;;;;;;24.30;19.37;;;0.20;99.90;;;;;;4967839;28;20560;-56
2022/03/25 05:05:14;;;;;;;29.73;21.20;;;0.30;99.90;;;;;;4972360;28;20500;-54
2022/03/25 05:07:45;;;;;;;27.70;20.37;;;0.30;99.90;;;;;;4967240;28;20469;-53
2022/03/25 05:10:13;;;;;;;29.10;19.20;;;0.40;99.90;;;;;;4971000;28;20507;-53
2022/03/25 05:12:42;;;;;;;29.23;20.60;;;0.40;99.90;;;;;;4969467;28;20477;-52
2022/03/25 05:15:10;;;;;;;27.43;21.80;;;0.40;99.90;;;;;;4967388;28;20557;-52
2022/03/25 05:17:44;;;;;;;28.77;20.83;;;0.40;99.90;;;;;;4967659;28;21069;-53
2022/03/25 05:20:11;;;;;;;30.33;20.00;;;0.50;99.90;;;;;;4966566;28;20454;-54
2022/03/25 05:22:38;;;;;;;28.70;20.73;;;0.50;99.90;;;;;;4969700;28;20625;-52
2022/03/25 05:25:07;;;;;;;24.27;20.30;;;0.40;99.90;;;;;;4972701;28;20544;-53
2022/03/25 05:27:44;;;;;;;26.17;20.30;;;0.50;99.90;;;;;;4969026;28;20946;-53
2022/03/25 05:30:12;;;;;;;32.37;20.70;;;0.60;99.90;;;;;;4968496;28;20485;-53
2022/03/25 05:32:39;;;;;;;31.93;20.37;;;0.60;99.90;;;;;;4970410;28;20596;-53
2022/03/25 05:35:07;;;;;;;31.73;21.37;;;0.60;99.90;;;;;;4973324;28;20548;-52
2022/03/25 05:37:34;;;;;;;30.10;22.20;;;0.70;99.90;;;;;;4966477;28;20502;-50
2022/03/25 05:40:00;;;;;;;25.30;20.47;;;0.70;99.90;;;;;;4963107;28;20497;-52
2022/03/25 05:42:27;;;;;;;27.67;20.57;;;0.80;99.90;;;;;;4969346;28;20616;-51
2022/03/25 05:44:55;;;;;;;27.47;21.50;;;0.80;99.90;;;;;;4969523;28;20546;-51
2022/03/25 05:47:21;;;;;;;31.03;21.53;;;0.90;99.90;;;;;;4966450;28;20918;-51
2022/03/25 05:49:48;;;;;;;32.13;21.70;;;1.00;99.90;;;;;;4969608;28;21065;-51
2022/03/25 05:52:15;;;;;;;35.27;21.93;;;1.00;99.90;;;;;;4966110;28;20485;-51
2022/03/25 05:54:41;;;;;;;30.70;22.30;;;1.10;99.90;;;;;;4967290;28;20461;-52
2022/03/25 05:57:08;;;;;;;30.03;22.10;;;1.30;99.90;;;;;;4972389;28;20512;-52
2022/03/25 05:59:35;;;;;;;29.90;20.90;;;1.40;99.90;;;;;;4968766;28;20462;-52
2022/03/25 06:02:03;;;;;;;35.67;23.27;;;1.50;99.90;;;;;;4966295;28;20573;-52
2022/03/25 06:04:29;;;;;;;30.73;22.60;;;1.60;99.90;;;;;;4967968;28;20557;-52
2022/03/25 06:06:56;;;;;;;28.70;22.13;;;1.70;99.90;;;;;;4970297;28;20580;-52
2022/03/25 06:09:23;;;;;;;32.67;24.77;;;1.80;99.90;;;;;;4968132;28;20541;-51
2022/03/25 06:11:51;;;;;;;35.30;24.80;;;1.90;99.90;;;;;;4968102;28;20469;-52
2022/03/25 06:14:17;;;;;;;27.70;20.83;;;2.10;22.20;;;;;;4965404;28;20472;-52
2022/03/25 06:16:44;;;;;;;39.13;22.43;;;2.10;25.70;;;;;;4970251;28;20484;-52
2022/03/25 06:19:13;;;;;;;30.30;22.53;;;2.20;25.40;;;;;;4962591;28;20987;-52
2022/03/25 06:21:39;;;;;;;35.27;21.50;;;2.30;31.90;;;;;;4968796;28;20481;-52
2022/03/25 06:24:07;;;;;;;27.80;21.83;;;2.40;33.80;;;;;;4966127;28;20481;-52
2022/03/25 06:26:34;;;;;;;30.87;21.90;;;2.50;36.50;;;;;;4966796;28;20456;-52
2022/03/25 06:29:01;;;;;;;34.57;22.13;;;2.60;32.80;;;;;;4956821;28;20451;-52
2022/03/25 06:31:27;;;;;;;32.77;21.10;;;2.80;37.70;;;;;;4968489;28;20485;-52
2022/03/25 06:33:54;;;;;;;30.53;23.20;;;3.00;43.10;;;;;;4969330;28;20901;-52
2022/03/25 06:36:22;;;;;;;34.60;26.10;;;3.10;48.30;;;;;;4970498;28;20560;-52
2022/03/25 06:38:49;;;;;;;49.83;31.47;;;3.40;54.60;;;;;;4961381;28;20461;-52
2022/03/25 06:41:16;;;;;;;46.77;27.87;;;3.50;55.60;;;;;;4960387;28;20576;-52
2022/03/25 06:43:43;;;;;;;36.50;25.70;;;3.60;53.30;;;;;;4973151;28;20475;-52
2022/03/25 06:46:11;;;;;;;47.00;27.93;;;3.70;54.90;;;;;;4963848;28;20552;-52
2022/03/25 06:48:38;;;;;;;38.97;26.57;;;4.00;54.60;;;;;;4969096;28;21083;-52
2022/03/25 06:51:05;;;;;;;34.70;26.27;;;4.30;65.00;;;;;;4966787;28;20569;-52
2022/03/25 06:53:34;;;;;;;37.17;25.37;;;4.60;71.40;;;;;;4969285;28;20900;-52
2022/03/25 06:56:01;;;;;;;41.80;26.07;;;4.80;80.80;;;;;;4973261;28;20542;-53
2022/03/25 06:58:28;;;;;;;40.23;26.20;;;4.90;85.50;;;;;;4971319;28;20497;-54
2022/03/25 07:00:55;;;;;;;38.83;26.13;;;5.10;89.20;;;;;;4968615;28;20569;-53
2022/03/25 07:03:22;;;;;;;34.40;24.13;;;5.30;90.10;;;;;;4965480;28;20461;-52
2022/03/25 07:05:49;;;;;;;37.43;23.27;;;5.40;90.80;;;;;;4967033;28;20545;-52
2022/03/25 07:08:16;;;;;;;46.73;25.53;;;5.60;92.20;;;;;;4967527;28;20531;-52
2022/03/25 07:10:45;;;;;;;38.60;25.40;;;5.80;99.90;;;;;;4971112;28;21020;-52
2022/03/25 07:13:12;;;;;;;50.30;27.10;;;6.10;99.90;;;;;;4962395;28;21077;-56
2022/03/25 07:15:38;;;;;;;61.17;29.23;;;6.30;99.90;;;;;;4966308;28;20561;-52
2022/03/25 07:18:05;;;;;;;54.93;25.30;;;6.60;99.90;;;;;;4964213;28;20548;-52
2022/03/25 07:20:32;;;;;;;44.23;24.07;;;6.90;99.90;;;;;;4967956;28;21031;-52
2022/03/25 07:22:58;;;;;;;54.37;25.63;;;7.30;99.90;;;;;;4966055;28;20957;-52
2022/03/25 07:25:27;;;;;;;47.27;24.60;;;7.80;99.90;;;;;;4969618;28;20552;-52
2022/03/25 07:27:55;;;;;;;65.37;24.80;;;8.20;99.90;;;;;;4968390;28;20990;-52
2022/03/25 07:30:22;;;;;;;45.60;23.93;;;8.60;99.90;;;;;;4968826;28;20571;-52
2022/03/25 07:32:48;;;;;;;58.73;28.10;;;8.90;99.90;;;;;;4970134;23;20530;-51
2022/03/25 07:35:16;;;;;;;45.63;26.77;;;9.20;99.90;;;;;;4950458;29;21051;-54
2022/03/25 07:37:44;;;;;;;52.40;26.97;;;9.50;99.90;;;;;;4951309;29;20466;-50
2022/03/25 07:40:13;;;;;;;58.60;25.97;;;10.00;99.90;;;;;;4945460;28;20561;-48
2022/03/25 07:42:41;;;;;;;47.63;25.70;;;10.10;99.90;;;;;;4955682;28;20479;-50
2022/03/25 07:45:11;;;;;;;46.20;25.10;;;10.20;99.90;;;;;;4942268;28;20544;-50
2022/03/25 07:47:40;;;;;;;45.17;25.57;;;10.00;99.90;;;;;;4948534;28;20471;-49
2022/03/25 07:50:08;;;;;;;42.77;26.70;;;10.40;99.90;;;;;;4950086;28;20905;-49
2022/03/25 07:52:34;;;;;;;43.23;25.50;;;10.70;99.90;;;;;;4951556;28;20490;-50
2022/03/25 07:55:01;;;;;;;41.00;24.97;;;11.00;99.90;;;;;;4947952;29;20554;-49
2022/03/25 07:57:28;;;;;;;40.93;23.87;;;10.80;99.90;;;;;;4953923;29;20454;-49
2022/03/25 07:59:54;;;;;;;38.33;24.20;;;10.90;99.90;;;;;;4947249;29;21155;-49
2022/03/25 08:02:22;;;;;;;47.00;25.70;;;11.40;99.90;;;;;;4944590;29;20578;-49
2022/03/25 08:04:49;;;;;;;51.37;22.80;;;11.70;99.90;;;;;;4951922;29;20490;-52
2022/03/25 08:07:15;;;;;;;45.47;24.30;;;11.70;99.90;;;;;;4945512;28;20471;-51
2022/03/25 08:09:42;;;;;;;44.40;23.73;;;12.00;99.90;;;;;;4944734;28;20470;-51
2022/03/25 08:12:10;;;;;;;41.67;23.13;;;12.40;99.90;;;;;;4946841;28;20490;-51
2022/03/25 08:14:36;;;;;;;35.47;22.10;;;12.30;99.90;;;;;;4950722;28;20505;-52
2022/03/25 08:17:03;;;;;;;44.97;23.47;;;12.20;99.90;;;;;;4947466;28;20545;-52
2022/03/25 08:19:32;;;;;;;36.03;22.10;;;12.00;99.90;;;;;;4950383;28;20806;-51
2022/03/25 08:21:58;;;;;;;42.93;23.63;;;12.00;99.90;;;;;;4948703;29;20482;-51
2022/03/25 08:29:54;;;;;;;40.17;24.83;;;12.40;99.90;;;;;;4954032;28;20450;-51
2022/03/25 08:32:21;;;;;;;44.37;25.23;;;13.00;99.90;;;;;;4946427;29;20519;-51
2022/03/25 08:34:49;;;;;;;37.83;24.30;;;13.00;99.90;;;;;;4956669;29;20522;-51
2022/03/25 08:37:15;;;;;;;45.27;26.83;;;13.40;99.90;;;;;;4949464;29;20484;-50
2022/03/25 08:39:42;;;;;;;33.77;24.00;;;13.40;99.90;;;;;;4972855;29;20455;-51
2022/03/25 08:42:10;;;;;;;40.07;24.90;;;13.50;99.90;;;;;;4964430;28;20490;-52
2022/03/25 08:44:36;;;;;;;40.87;24.50;;;13.70;99.90;;;;;;4954943;29;20450;-56
2022/03/25 08:47:03;;;;;;;50.93;25.37;;;14.20;99.90;;;;;;4957272;29;20470;-51
2022/03/25 08:49:32;;;;;;;53.33;25.40;;;14.40;99.90;;;;;;4956516;29;20550;-52
2022/03/25 08:52:00;;;;;;;41.10;26.57;;;14.80;99.90;;;;;;4956307;28;20486;-51
2022/03/25 08:54:27;;;;;;;47.20;25.97;;;15.20;99.90;;;;;;4957037;29;20538;-51
2022/03/25 08:56:54;;;;;;;62.27;29.77;;;15.40;99.90;;;;;;4958490;28;20541;-51
2022/03/25 08:59:20;;;;;;;61.83;27.23;;;15.40;99.90;;;;;;4955756;28;20463;-52
2022/03/25 09:01:47;;;;;;;48.37;27.90;;;16.00;99.90;;;;;;4957158;28;20573;-51
2022/03/25 09:04:13;;;;;;;49.43;28.33;;;16.30;99.90;;;;;;4960337;28;20533;-51
2022/03/25 09:06:40;;;;;;;60.00;30.23;;;16.10;99.90;;;;;;4956180;29;20533;-51
2022/03/25 09:09:08;;;;;;;52.43;29.90;;;16.00;99.90;;;;;;4949434;29;20479;-50
2022/03/25 09:11:35;;;;;;;52.30;29.90;;;16.90;99.90;;;;;;4956076;29;20577;-51
2022/03/25 09:14:01;;;;;;;47.50;28.70;;;17.90;99.90;;;;;;4955667;28;20462;-52
2022/03/25 09:16:28;;;;;;;60.33;30.47;;;17.70;99.90;;;;;;4956179;29;20443;-51
2022/03/25 09:18:55;;;;;;;50.30;31.43;;;18.40;99.90;;;;;;4957344;28;20987;-51
2022/03/25 09:21:22;;;;;;;76.50;30.97;;;18.00;99.90;;;;;;4963623;28;20518;-51
2022/03/25 09:23:49;;;;;;;52.93;29.90;;;18.80;99.90;;;;;;4958686;28;20456;-52
2022/03/25 09:26:17;;;;;;;51.07;29.73;;;18.40;99.90;;;;;;4955505;28;20493;-51
2022/03/25 09:28:44;;;;;;;53.20;34.03;;;18.40;99.90;;;;;;4954944;29;20529;-50
2022/03/25 09:31:11;;;;;;;50.17;31.63;;;18.60;99.90;;;;;;4955761;28;20578;-51
2022/03/25 09:33:37;;;;;;;54.23;31.20;;;18.40;99.90;;;;;;4952567;29;20487;-52
2022/03/25 09:36:04;;;;;;;54.30;32.07;;;19.10;99.90;;;;;;4956131;28;20479;-51
2022/03/25 09:38:31;;;;;;;65.40;33.20;;;19.00;99.90;;;;;;4940797;29;20483;-52
2022/03/25 09:40:58;;;;;;;56.40;32.80;;;20.30;99.90;;;;;;4951228;29;20538;-52
2022/03/25 09:43:26;;;;;;;48.43;29.70;;;20.30;99.90;;;;;;4947014;29;20991;-51
2022/03/25 09:45:53;;;;;;;65.80;34.90;;;19.30;99.90;;;;;;4955173;29;20538;-52
2022/03/25 09:48:19;;;;;;;54.00;32.20;;;19.60;99.90;;;;;;4954195;29;20538;-53
2022/03/25 09:50:46;;;;;;;50.30;32.50;;;20.10;99.90;;;;;;4954745;29;20553;-50
2022/03/25 09:53:13;;;;;;;69.97;33.43;;;19.40;99.90;;;;;;4954894;28;20481;-52
2022/03/25 09:55:42;;;;;;;49.20;33.10;;;19.40;99.90;;;;;;4954874;29;21008;-52
2022/03/25 09:58:08;;;;;;;59.53;34.83;;;20.00;99.90;;;;;;4954421;29;20549;-52
2022/03/25 10:00:36;;;;;;;48.67;31.80;;;20.90;99.90;;;;;;4936492;29;20543;-54
2022/03/25 10:03:04;;;;;;;49.17;34.37;;;20.00;99.90;;;;;;4942346;29;20557;-55
2022/03/25 10:05:31;;;;;;;63.17;35.07;;;19.40;99.90;;;;;;4954889;29;21051;-54
2022/03/25 10:07:57;;;;;;;51.33;36.90;;;19.60;99.90;;;;;;4947565;29;20474;-54
2022/03/25 10:10:26;;;;;;;57.00;35.67;;;19.40;99.90;;;;;;4955118;29;20461;-54
2022/03/25 10:12:59;;;;;;;49.40;35.77;;;20.00;99.90;;;;;;4954979;28;20574;-55
2022/03/25 10:15:28;;;;;;;53.57;33.50;;;20.40;99.90;;;;;;4955311;29;20966;-50
2022/03/25 10:17:57;;;;;;;54.87;33.87;;;20.00;99.90;;;;;;4946215;29;20463;-54
2022/03/25 10:20:25;;;;;;;48.67;32.57;;;20.30;99.90;;;;;;4954417;29;20541;-55
2022/03/25 10:23:08;;;;;;;75.60;35.80;;;21.30;99.90;;;;;;4950524;28;20973;-54
2022/03/25 10:25:38;;;;;;;54.67;34.30;;;20.90;99.90;;;;;;4935595;29;20443;-54
2022/03/25 10:28:06;;;;;;;54.30;32.00;;;20.60;99.90;;;;;;4946065;29;20482;-54
2022/03/25 10:30:41;;;;;;;45.47;31.07;;;19.90;99.90;;;;;;4954598;29;20526;-54
2022/03/25 10:33:14;;;;;;;51.03;33.03;;;19.70;99.90;;;;;;4954423;29;20514;-55
2022/03/25 10:35:57;;;;;;;51.30;32.70;;;19.70;99.90;;;;;;4954704;29;20462;-55
2022/03/25 10:38:25;;;;;;;51.43;32.10;;;19.70;99.90;;;;;;4941376;29;21044;-55
2022/03/25 10:40:53;;;;;;;67.60;33.83;;;19.20;99.90;;;;;;4935418;29;20542;-54
2022/03/25 10:43:20;;;;;;;50.90;30.10;;;19.90;99.90;;;;;;4934097;29;20569;-55
2022/03/25 10:45:48;;;;;;;51.10;30.63;;;20.70;99.90;;;;;;4935328;29;20542;-55
2022/03/25 10:48:19;;;;;;;50.67;30.27;;;20.20;99.90;;;;;;4947439;29;20545;-52
2022/03/25 10:51:00;;;;;;;54.07;29.30;;;20.80;99.90;;;;;;4954593;29;20617;-52
2022/03/25 10:53:27;;;;;;;48.40;26.67;;;19.90;99.90;;;;;;4953957;29;20553;-52
2022/03/25 10:55:55;;;;;;;38.43;21.07;;;19.10;99.90;;;;;;4954067;28;20450;-52
2022/03/25 10:58:22;;;;;;;42.93;28.23;;;19.90;99.90;;;;;;4953373;29;21020;-52
2022/03/25 11:00:49;;;;;;;35.83;22.53;;;20.50;99.90;;;;;;4954204;28;20486;-52
2022/03/25 11:03:17;;;;;;;36.50;22.10;;;19.60;99.90;;;;;;4954125;29;20470;-52
2022/03/25 11:05:44;;;;;;;35.53;21.10;;;18.90;99.90;;;;;;4954013;29;21019;-52
2022/03/25 11:08:11;;;;;;;34.47;21.03;;;18.10;99.90;;;;;;4947910;29;20558;-51
2022/03/25 11:10:38;;;;;;;31.23;20.73;;;17.80;99.90;;;;;;4953861;29;20457;-52
2022/03/25 11:13:06;;;;;;;34.83;21.50;;;18.20;99.90;;;;;;4953778;29;20495;-52
2022/03/25 11:15:33;;;;;;;43.70;22.70;;;17.90;99.90;;;;;;4954263;29;20530;-51
2022/03/25 11:18:00;;;;;;;38.20;22.83;;;17.70;99.90;;;;;;4949090;29;20462;-52
2022/03/25 11:20:29;;;;;;;32.90;22.77;;;17.60;99.90;;;;;;4953889;29;20531;-53
2022/03/25 11:23:02;;;;;;;40.27;23.13;;;18.20;99.90;;;;;;4953671;28;20537;-52
2022/03/25 11:25:30;;;;;;;43.10;24.43;;;18.20;99.90;;;;;;4954173;29;20558;-51
2022/03/25 11:28:01;;;;;;;35.87;22.70;;;17.90;99.90;;;;;;4952691;29;21084;-51
2022/03/25 11:30:32;;;;;;;37.17;23.30;;;18.10;99.90;;;;;;4953936;29;20533;-51
2022/03/25 11:33:04;;;;;;;33.37;22.10;;;18.10;99.90;;;;;;4953337;29;20569;-52
2022/03/25 11:35:34;;;;;;;35.43;22.00;;;17.90;99.90;;;;;;4952621;28;20545;-52
2022/03/25 11:38:22;;;;;;;30.40;21.27;;;18.30;99.90;;;;;;4951558;29;20478;-52
2022/03/25 11:40:51;;;;;;;34.53;21.90;;;18.20;99.90;;;;;;4953265;29;20975;-51
2022/03/25 11:43:19;;;;;;;33.77;21.80;;;18.50;99.90;;;;;;4945153;29;21220;-52
2022/03/25 11:46:01;;;;;;;37.77;20.90;;;18.50;99.90;;;;;;4953822;29;20489;-51
2022/03/25 11:48:39;;;;;;;32.17;20.60;;;18.70;99.90;;;;;;4953347;29;20924;-52
2022/03/25 11:51:27;;;;;;;37.27;20.57;;;18.50;99.90;;;;;;4953891;29;20497;-51
2022/03/25 11:53:54;;;;;;;34.23;19.93;;;18.40;99.90;;;;;;4954539;28;20533;-52
2022/03/25 11:56:21;;;;;;;33.80;20.30;;;18.60;99.90;;;;;;4957216;28;20856;-53
2022/03/25 11:59:00;;;;;;;34.43;20.40;;;18.60;99.90;;;;;;4957308;29;20493;-52
2022/03/25 12:01:27;;;;;;;33.07;21.70;;;18.50;99.90;;;;;;4957332;28;20490;-51
2022/03/25 12:03:55;;;;;;;36.67;21.37;;;18.60;99.90;;;;;;4956690;29;20885;-52
2022/03/25 12:06:24;;;;;;;36.23;21.73;;;18.60;99.90;;;;;;4957377;29;20616;-51
2022/03/25 12:09:01;;;;;;;32.67;21.13;;;18.40;99.90;;;;;;4957955;29;20490;-52
2022/03/25 12:11:51;;;;;;;36.17;21.50;;;18.60;99.90;;;;;;4960594;28;20450;-53
2022/03/25 12:14:18;;;;;;;36.50;22.57;;;18.40;99.90;;;;;;4939502;29;20516;-52
2022/03/25 12:16:55;;;;;;;32.37;21.47;;;18.70;99.90;;;;;;4942509;29;20549;-52
2022/03/25 12:19:44;;;;;;;30.83;20.20;;;19.00;99.90;;;;;;4958072;29;20458;-54
2022/03/25 12:22:42;;;;;;;33.03;20.40;;;19.00;99.90;;;;;;4953185;28;20542;-52
2022/03/25 12:25:21;;;;;;;32.83;20.43;;;19.00;99.90;;;;;;4958219;29;20518;-51
2022/03/25 12:27:51;;;;;;;33.23;18.47;;;19.20;99.90;;;;;;4958796;29;20950;-52
2022/03/25 12:30:18;;;;;;;26.73;14.97;;;19.20;99.90;;;;;;4957067;28;20825;-51
2022/03/25 12:32:44;;;;;;;30.60;17.03;;;19.50;99.90;;;;;;4948819;29;20938;-52
2022/03/25 12:35:13;;;;;;;27.97;17.57;;;19.10;99.90;;;;;;4952370;29;20529;-52
2022/03/25 12:38:11;;;;;;;34.77;17.43;;;18.80;99.90;;;;;;4956300;29;20457;-51
2022/03/25 12:40:39;;;;;;;41.70;18.17;;;18.30;99.90;;;;;;4956779;29;20991;-51
2022/03/25 12:43:11;;;;;;;31.90;18.33;;;18.90;99.90;;;;;;4956424;29;20549;-52